Concord, TX (77850)

10:13 AM CDT on September 02, 2015 (GMT -0500)
Double Q Ranch | | Change Station
CLOSE
Current Station
Personal Weather Station
Location: Normangee, TX
Elevation: 440 ft
Nearby Weather Stations

Elev 440 ft 31.19 °N, 96.06 °W | Updated 3 minutes ago

Clear
Clear
79.2 °F
Feels Like 83 °F
N
1.0
Wind Variable Wind from SW
Gusts 1.0 mph

Today
High -- | Low -- °F
--% Chance of Precip.
Yesterday
High -- | Low -- °F
Precip. -- in
7:00 AM 7:46 PM
Waning Gibbous, 79% visible
Pressure 30.08 in
Visibility 10.0 miles
Clouds Clear
Heat Index 83 °F
Dew Point 73 °F
Humidity 81%
Rainfall 0.00 in
Snow Depth Not available.
UV 4 out of 12
Pollen 8.60 out of 12
Air Quality Not available.
Flu Activity Not available.
METAR KLXY 021455Z AUTO 09005G14KT 10SM CLR 26/21 A3008 RMK AO2 T02630209
Pressure 30.08 in
Visibility 10.0 miles
Clouds Clear
Heat Index 83 °F
Dew Point 73 °F
Humidity 81%
Rainfall 0.00 in
Snow Depth Not available.
UV 4 out of 12
Pollen 8.60 out of 12
Air Quality Not available.
Flu Activity Not available.
METAR KLXY 021455Z AUTO 09005G14KT 10SM CLR 26/21 A3008 RMK AO2 T02630209

10-Day Weather Forecast

×

Almanac

Astronomy

Sep. 02, 2015 Rise Set
Actual Time
Civil Twilight
Nautical Twilight
Astronomical Twilight
Moon
Length of Visible Light
Length of Day
Tomorrow will be .
, % of the Moon is Illuminated

Today's Extremes

State Highs State Lows

Community

WunderPhotos

Upload Photos

1,851,769 photos uploaded!

WunderBlogs® & News

Nearby

Air Quality

  Air Quality AQ Index Pollutant
Not available.

Snow Depth

Station Depth Elevation

Earthquake Activity

City Distance Mag. Time & Date
Minimum magnitude displayed is 2.5.

Coastal Water Temperatures

Place Temperature

Stations

Nearby Weather Stations

Station Location Temp. Windchill Dew Point Humidity Wind Precip. Elev Updated Type